Time;durP1;ratioP1;P1;durP2;ratioP2;P2;SDS_P1;SDS_P2;PMS_P1;PMS_P2;Temp;Humidity;BMP_temperature;BMP_pressure;BME280_temperature;BME280_humidity;BME280_pressure;Samples;Min_cycle;Max_cycle;Signal;HPM_P1;HPM_P2
2022/06/12 00:01:07;;;;;;;19.77;12.53;;;;;;;17.65;68.86;99874.84;1818180;78;21000;-71
2022/06/12 00:03:34;;;;;;;15.53;11.12;;;;;;;17.63;68.82;99878.58;1818759;78;21062;-71
2022/06/12 00:06:01;;;;;;;18.62;11.83;;;;;;;17.54;68.72;99874.74;1818722;78;21157;-70
2022/06/12 00:08:32;;;;;;;17.37;10.78;;;;;;;17.55;69.11;99887.08;1818446;78;21053;-70
2022/06/12 00:11:01;;;;;;;18.05;11.73;;;;;;;17.52;69.23;99887.31;1818467;78;21081;-72
2022/06/12 00:13:42;;;;;;;17.82;11.93;;;;;;;17.50;69.35;99894.55;1789946;78;21047;-71
2022/06/12 00:16:08;;;;;;;19.57;14.23;;;;;;;17.48;69.80;99895.13;1789360;79;21039;-70
2022/06/12 00:18:38;;;;;;;19.75;14.70;;;;;;;17.45;71.27;99903.34;1789192;79;21086;-70
2022/06/12 00:21:12;;;;;;;19.35;14.70;;;;;;;17.46;72.52;99903.70;1789121;79;21075;-72
2022/06/12 00:23:58;;;;;;;24.43;15.23;;;;;;;17.48;73.59;99899.12;1759827;80;21003;-72
2022/06/12 00:26:38;;;;;;;24.30;16.37;;;;;;;17.50;74.08;99897.21;1788425;79;21023;-71
2022/06/12 00:29:15;;;;;;;23.02;14.83;;;;;;;17.53;75.76;99895.66;1789295;79;21035;-72
2022/06/12 00:31:46;;;;;;;21.12;14.80;;;;;;;17.55;76.84;99887.08;1789231;80;21217;-71
2022/06/12 00:34:14;;;;;;;21.42;13.05;;;;;;;17.57;77.84;99889.16;1789357;79;21101;-70
2022/06/12 00:36:41;;;;;;;24.95;15.75;;;;;;;17.58;78.77;99889.06;1789171;80;21101;-71
2022/06/12 00:39:08;;;;;;;22.07;16.42;;;;;;;17.60;80.29;99890.30;1789242;79;21011;-71
2022/06/12 00:41:36;;;;;;;21.97;15.55;;;;;;;17.61;80.85;99897.31;1789256;79;21551;-71
2022/06/12 00:44:03;;;;;;;30.60;21.27;;;;;;;17.61;82.46;99894.66;1789317;79;21171;-72
2022/06/12 00:46:49;;;;;;;37.50;25.17;;;;;;;17.60;82.49;99895.63;1789133;80;21588;-71
2022/06/12 00:49:31;;;;;;;35.68;23.02;;;;;;;17.57;84.23;99893.16;1789533;80;21094;-71
2022/06/12 00:52:12;;;;;;;31.15;22.58;;;;;;;17.56;86.07;99894.13;1789314;79;20991;-72
2022/06/12 00:54:39;;;;;;;27.65;20.05;;;;;;;17.57;89.32;99891.83;1789644;80;21105;-71
2022/06/12 00:57:07;;;;;;;30.27;20.40;;;;;;;17.57;89.32;99891.83;1789245;79;21761;-71
2022/06/12 00:59:44;;;;;;;24.23;19.00;;;;;;;17.57;92.25;99887.83;1788988;80;21042;-71
2022/06/12 01:02:14;;;;;;;28.25;19.17;;;;;;;17.59;93.00;99891.24;1789147;79;21289;-71
2022/06/12 01:07:32;;;;;;;24.30;18.65;;;;;;;17.64;96.09;99888.26;1788836;79;21043;-72
2022/06/12 01:10:02;;;;;;;29.12;18.57;;;;;;;17.66;98.46;99892.52;1771226;80;21629;-71
2022/06/12 01:12:33;;;;;;;30.02;21.07;;;;;;;17.68;100.00;99893.26;1785359;80;21108;-69
2022/06/12 01:15:06;;;;;;;26.80;19.77;;;;;;;17.68;100.00;99887.94;1783432;80;21077;-70
2022/06/12 01:17:34;;;;;;;22.25;17.45;;;;;;;17.70;100.00;99880.69;1755729;81;21041;-70
2022/06/12 01:20:07;;;;;;;22.17;18.48;;;;;;;17.70;100.00;99879.36;1755981;81;21609;-72
2022/06/12 01:23:15;;;;;;;26.85;19.05;;;;;;;17.72;100.00;99885.44;1755852;81;21679;-70
2022/06/12 01:26:20;;;;;;;25.88;17.82;;;;;;;17.75;100.00;99885.69;1756057;81;21029;-71
2022/06/12 01:28:56;;;;;;;25.27;19.17;;;;;;;17.78;100.00;99890.34;1783856;80;21039;-70
2022/06/12 01:31:40;;;;;;;24.37;19.27;;;;;;;17.77;100.00;99879.30;1775338;80;21058;-71
2022/06/12 01:34:41;;;;;;;21.12;18.75;;;;;;;17.77;100.00;99884.63;1784182;80;21605;-71
2022/06/12 01:37:23;;;;;;;22.27;18.35;;;;;;;17.77;100.00;99881.11;1770628;80;21545;-71
2022/06/12 01:40:20;;;;;;;26.20;20.23;;;;;;;17.76;100.00;99877.61;1783794;80;21000;-71
2022/06/12 01:43:11;;;;;;;23.77;20.10;;;;;;;17.75;100.00;99871.05;1783752;80;21059;-71
2022/06/12 01:46:05;;;;;;;23.57;20.30;;;;;;;17.73;100.00;99879.13;1783667;80;21118;-71
2022/06/12 01:48:55;;;;;;;22.77;18.90;;;;;;;17.72;100.00;99879.27;1783579;80;21139;-71
2022/06/12 01:51:38;;;;;;;19.95;16.75;;;;;;;17.69;100.00;99879.00;1783920;80;21244;-70
2022/06/12 01:54:42;;;;;;;21.80;18.40;;;;;;;17.66;100.00;99873.88;1783621;80;21034;-71
2022/06/12 01:57:34;;;;;;;23.57;20.20;;;;;;;17.65;100.00;99878.00;1784130;80;21117;-71
2022/06/12 02:00:11;;;;;;;23.83;20.12;;;;;;;17.63;100.00;99880.75;1783482;80;21050;-71
2022/06/12 02:02:57;;;;;;;26.35;20.15;;;;;;;17.61;100.00;99876.02;1783911;80;21078;-70
2022/06/12 02:05:32;;;;;;;25.62;19.23;;;;;;;17.60;100.00;99887.64;1783696;80;21310;-70
2022/06/12 02:08:19;;;;;;;28.17;22.10;;;;;;;17.57;100.00;99883.84;1782548;80;21027;-70
2022/06/12 02:10:54;;;;;;;25.77;22.22;;;;;;;17.57;100.00;99885.17;1781700;80;21038;-70
2022/06/12 02:13:30;;;;;;;26.00;21.90;;;;;;;17.56;100.00;99886.14;1783508;80;21049;-71
2022/06/12 02:16:09;;;;;;;28.45;21.55;;;;;;;17.55;100.00;99882.64;1785665;80;21054;-71
2022/06/12 02:18:44;;;;;;;30.43;22.22;;;;;;;17.53;100.00;99881.02;1799188;79;21630;-71
2022/06/12 02:21:28;;;;;;;26.60;21.80;;;;;;;17.53;100.00;99883.22;1799568;79;21042;-72
2022/06/12 02:24:18;;;;;;;26.02;21.52;;;;;;;17.52;100.00;99881.50;1799871;79;21030;-70
2022/06/12 02:26:57;;;;;;;26.60;21.27;;;;;;;17.52;100.00;99885.98;1799138;79;21054;-70
2022/06/12 02:29:21;;;;;;;25.68;21.95;;;;;;;17.52;100.00;99885.98;1798367;79;21042;-70
2022/06/12 02:31:51;;;;;;;26.17;20.15;;;;;;;17.54;100.00;99886.72;1799314;79;21132;-71
2022/06/12 02:34:29;;;;;;;23.93;20.50;;;;;;;17.56;100.00;99890.14;1770551;79;21033;-69
2022/06/12 02:36:59;;;;;;;29.45;21.02;;;;;;;17.58;100.00;99881.56;1798248;79;21081;-70
2022/06/12 02:39:34;;;;;;;25.62;21.07;;;;;;;17.62;100.00;99887.02;1799123;79;21054;-71
2022/06/12 02:42:08;;;;;;;25.20;19.82;;;;;;;17.65;100.00;99887.31;1799082;79;21101;-70
2022/06/12 02:44:46;;;;;;;29.57;21.50;;;;;;;17.69;100.00;99884.33;1798984;79;21857;-70
2022/06/12 02:47:18;;;;;;;30.52;21.35;;;;;;;17.74;100.00;99884.00;1781936;79;21023;-70
2022/06/12 02:49:46;;;;;;;;;;;;;;;17.75;100.00;99881.21;1801608;79;21079;-69
2022/06/12 02:52:35;;;;;;;29.30;20.85;;;;;;;17.78;100.00;99880.14;1799276;79;20209;-69
2022/06/12 02:55:44;;;;;;;24.77;20.62;;;;;;;17.78;100.00;99879.68;1799033;79;21061;-71
2022/06/12 02:58:38;;;;;;;25.85;20.90;;;;;;;17.82;100.00;99879.84;1799271;79;21175;-70
2022/06/12 03:01:14;;;;;;;22.73;17.32;;;;;;;17.85;100.00;99879.26;1798990;79;21082;-72
2022/06/12 03:03:50;;;;;;;22.77;19.25;;;;;;;17.86;100.00;99880.49;1799234;79;21062;-69
2022/06/12 03:06:17;;;;;;;26.55;20.43;;;;;;;17.86;100.00;99872.98;1798866;79;21589;-71
2022/06/12 03:08:48;;;;;;;30.97;21.93;;;;;;;17.94;100.00;99880.77;1776477;79;21508;-70
2022/06/12 03:11:24;;;;;;;24.12;20.30;;;;;;;18.01;100.00;99881.19;1766371;81;21156;-70
2022/06/12 03:13:53;;;;;;;27.35;21.05;;;;;;;18.06;100.00;99875.08;1766414;81;21047;-70
2022/06/12 03:16:28;;;;;;;25.60;20.32;;;;;;;18.14;100.00;99878.02;1766156;81;21090;-69
2022/06/12 03:19:10;;;;;;;22.77;19.90;;;;;;;18.23;100.00;99878.68;1765894;81;21020;-70
2022/06/12 03:22:34;;;;;;;25.95;19.82;;;;;;;18.34;100.00;99883.73;1766006;81;21091;-70
2022/06/12 03:25:09;;;;;;;22.10;18.67;;;;;;;18.48;100.00;99889.38;1766379;81;21104;-70
2022/06/12 03:28:03;;;;;;;23.83;18.90;;;;;;;18.68;100.00;99890.55;1765996;81;22203;-70
2022/06/12 03:30:40;;;;;;;23.22;19.23;;;;;;;18.82;100.00;99893.09;1766378;81;21050;-71
2022/06/12 03:33:31;;;;;;;23.80;19.98;;;;;;;18.96;100.00;99880.88;1766318;81;21083;-71
2022/06/12 03:36:08;;;;;;;22.30;16.40;;;;;;;19.15;100.00;99879.48;1766226;81;21049;-70
2022/06/12 03:38:52;;;;;;;21.77;17.12;;;;;;;19.31;100.00;99885.33;1764864;81;21659;-70
2022/06/12 03:41:29;;;;;;;20.55;18.35;;;;;;;19.44;100.00;99882.08;1765938;81;21026;-71
2022/06/12 03:44:19;;;;;;;27.75;18.75;;;;;;;19.56;100.00;99876.75;1737678;81;21052;-71
2022/06/12 03:46:54;;;;;;;23.23;17.43;;;;;;;19.70;100.00;99887.23;1765956;81;21115;-70
2022/06/12 03:49:38;;;;;;;23.38;17.45;;;;;;;19.87;100.00;99881.38;1742261;81;21037;-71
2022/06/12 03:52:13;;;;;;;25.37;17.17;;;;;;;20.06;100.00;99885.25;1738753;81;22887;-70
2022/06/12 03:55:04;;;;;;;21.17;16.90;;;;;;;20.27;100.00;99875.51;1766133;81;21292;-71
2022/06/12 03:57:53;;;;;;;21.35;17.17;;;;;;;20.51;100.00;99871.79;1766216;81;21053;-71
2022/06/12 04:00:40;;;;;;;22.87;16.17;;;;;;;20.72;99.81;99869.19;1766004;81;21137;-72
2022/06/12 04:03:25;;;;;;;18.37;16.45;;;;;;;20.97;97.91;99871.98;1765878;81;21509;-70
2022/06/12 04:06:07;;;;;;;17.77;15.35;;;;;;;21.26;95.49;99872.69;1764097;81;21163;-72
2022/06/12 04:08:41;;;;;;;18.37;13.35;;;;;;;21.60;93.56;99875.14;1778717;79;21209;-71
2022/06/12 04:11:10;;;;;;;23.27;14.98;;;;;;;21.87;90.31;99878.08;1795613;79;21044;-71
2022/06/12 04:13:38;;;;;;;19.10;14.07;;;;;;;22.14;88.75;99871.27;1795695;79;21068;-71
2022/06/12 04:16:32;;;;;;;18.35;13.25;;;;;;;22.37;87.01;99875.43;1796590;79;21059;-71
2022/06/12 04:19:03;;;;;;;16.95;14.43;;;;;;;22.59;85.51;99882.39;1795805;79;21049;-71
2022/06/12 04:21:47;;;;;;;19.90;14.38;;;;;;;22.87;84.04;99877.16;1795896;79;21044;-72
2022/06/12 04:24:22;;;;;;;15.35;13.72;;;;;;;23.13;83.05;99879.29;1795933;79;21020;-72
2022/06/12 04:26:59;;;;;;;16.42;13.18;;;;;;;23.33;81.42;99882.77;1796199;79;21104;-71
2022/06/12 04:29:30;;;;;;;18.85;12.85;;;;;;;23.54;80.88;99887.47;1795857;79;21016;-71
2022/06/12 04:32:01;;;;;;;16.27;14.05;;;;;;;23.81;79.12;99882.67;1795659;79;21543;-71
2022/06/12 04:34:36;;;;;;;13.78;12.28;;;;;;;24.03;77.19;99888.14;1795462;79;21076;-71
2022/06/12 04:37:14;;;;;;;15.15;13.55;;;;;;;24.27;75.13;99893.45;1795823;79;21049;-71
2022/06/12 04:39:43;;;;;;;17.35;13.85;;;;;;;24.47;74.28;99891.02;1795670;79;21028;-71
2022/06/12 04:42:13;;;;;;;22.40;13.53;;;;;;;24.66;74.09;99885.15;1795625;79;21636;-71
2022/06/12 04:44:40;;;;;;;19.12;14.15;;;;;;;24.89;72.91;99883.70;1795857;79;21117;-70
2022/06/12 04:47:07;;;;;;;17.17;13.13;;;;;;;25.16;71.93;99883.73;1795856;79;21080;-71
2022/06/12 04:49:35;;;;;;;16.60;13.43;;;;;;;25.39;71.02;99880.05;1764893;79;21049;-71
2022/06/12 04:52:05;;;;;;;16.95;12.13;;;;;;;25.63;69.50;99877.99;1795688;79;21072;-72
2022/06/12 04:54:32;;;;;;;18.70;12.20;;;;;;;25.80;68.84;99876.25;1795999;79;21521;-71
2022/06/12 04:56:59;;;;;;;16.67;12.75;;;;;;;26.01;68.68;99882.09;1795728;79;21469;-71
2022/06/12 04:59:25;;;;;;;13.25;11.85;;;;;;;26.28;67.67;99883.70;1795651;79;21053;-71
2022/06/12 05:01:52;;;;;;;15.90;11.97;;;;;;;26.41;66.24;99884.60;1795626;79;21052;-72
2022/06/12 05:04:21;;;;;;;14.73;11.12;;;;;;;26.45;65.06;99885.94;1795839;79;21089;-73
2022/06/12 05:06:49;;;;;;;16.27;12.28;;;;;;;26.51;64.79;99886.63;1795918;79;21103;-72
2022/06/12 05:09:16;;;;;;;16.70;12.37;;;;;;;26.62;64.75;99886.00;1798079;79;21542;-71
2022/06/12 05:11:44;;;;;;;13.83;10.85;;;;;;;26.72;64.48;99891.59;1791124;79;21048;-71
2022/06/12 05:14:12;;;;;;;14.07;11.55;;;;;;;26.84;62.83;99894.80;1767896;81;21056;-71
2022/06/12 05:16:46;;;;;;;14.20;11.40;;;;;;;27.04;62.61;99895.84;1768096;81;22230;-71
2022/06/12 05:19:17;;;;;;;13.90;11.80;;;;;;;27.23;63.04;99891.45;1768027;81;21008;-71
2022/06/12 05:21:44;;;;;;;16.07;12.10;;;;;;;27.38;62.35;99892.46;1768508;81;21824;-71
2022/06/12 05:24:11;;;;;;;13.48;11.95;;;;;;;27.50;62.53;99897.52;1767732;81;21043;-71
2022/06/12 05:26:39;;;;;;;14.30;12.05;;;;;;;27.49;61.77;99897.16;1767712;81;21123;-71
2022/06/12 05:29:09;;;;;;;14.00;11.75;;;;;;;27.61;62.07;99899.86;1767998;81;21064;-71
2022/06/12 05:31:36;;;;;;;17.02;12.35;;;;;;;27.67;61.68;99905.08;1742231;81;21107;-71
2022/06/12 05:34:02;;;;;;;18.12;11.55;;;;;;;27.78;61.54;99900.13;1768484;81;21113;-72
2022/06/12 05:36:30;;;;;;;14.68;11.45;;;;;;;27.94;61.49;99899.78;1768243;81;21072;-73
2022/06/12 05:38:56;;;;;;;12.55;11.35;;;;;;;28.10;61.12;99905.12;1768306;81;22173;-71
2022/06/12 05:41:23;;;;;;;14.83;11.93;;;;;;;28.35;60.61;99900.95;1768124;81;21076;-72
2022/06/12 05:43:50;;;;;;;15.68;12.37;;;;;;;28.62;59.36;99892.36;1768178;81;21111;-71
2022/06/12 05:46:17;;;;;;;15.72;12.60;;;;;;;28.88;58.48;99897.92;1768013;81;22203;-71
2022/06/12 05:48:44;;;;;;;14.28;11.75;;;;;;;28.89;57.70;99898.24;1768085;81;21517;-71
2022/06/12 05:51:13;;;;;;;13.00;11.50;;;;;;;28.69;57.24;99892.97;1767985;81;21108;-71
2022/06/12 05:53:40;;;;;;;16.60;11.40;;;;;;;28.50;57.15;99900.54;1768396;81;21053;-72
2022/06/12 05:56:13;;;;;;;13.98;12.47;;;;;;;28.31;57.94;99902.33;1768236;81;21045;-70
2022/06/12 05:58:41;;;;;;;16.30;11.75;;;;;;;28.15;59.27;99912.20;1768326;81;21584;-72
2022/06/12 06:01:09;;;;;;;13.38;12.05;;;;;;;28.10;58.69;99907.83;1768169;81;21123;-74
2022/06/12 06:03:36;;;;;;;14.15;12.55;;;;;;;28.24;59.63;99901.67;1768173;81;21032;-72
2022/06/12 06:06:04;;;;;;;12.90;11.22;;;;;;;28.37;58.81;99898.92;1768154;81;21155;-73
2022/06/12 06:08:32;;;;;;;12.78;11.53;;;;;;;28.48;59.21;99895.81;1767393;81;21612;-73
2022/06/12 06:10:58;;;;;;;16.82;11.93;;;;;;;28.86;58.94;99902.68;1764529;81;21151;-72
2022/06/12 06:13:26;;;;;;;13.70;12.10;;;;;;;29.17;57.09;99901.77;1819094;78;21053;-73
2022/06/12 06:15:52;;;;;;;15.20;11.35;;;;;;;29.19;56.83;99902.44;1788987;80;21194;-72
2022/06/12 06:18:20;;;;;;;18.90;12.00;;;;;;;29.23;56.97;99892.91;1820967;78;21545;-73
2022/06/12 06:20:49;;;;;;;15.88;11.22;;;;;;;29.56;56.33;99893.94;1788497;80;21367;-72
2022/06/12 06:23:17;;;;;;;12.35;11.08;;;;;;;29.88;55.19;99888.69;1821073;78;21587;-72
2022/06/12 06:25:43;;;;;;;13.18;10.88;;;;;;;30.14;54.50;99889.56;1788974;80;21029;-72
2022/06/12 06:28:11;;;;;;;14.98;11.48;;;;;;;30.44;53.74;99896.33;1821052;78;21516;-71
2022/06/12 06:30:38;;;;;;;17.67;11.18;;;;;;;30.74;52.72;99889.73;1788856;80;21099;-72
2022/06/12 06:33:06;;;;;;;13.90;9.73;;;;;;;30.97;51.98;99883.30;1821095;78;21049;-72
2022/06/12 06:35:35;;;;;;;9.90;8.88;;;;;;;31.11;51.79;99882.37;1788718;80;21136;-71
2022/06/12 06:38:02;;;;;;;10.20;8.88;;;;;;;31.43;48.41;99885.58;1820810;78;21636;-70
2022/06/12 06:40:30;;;;;;;15.05;8.90;;;;;;;31.63;46.17;99880.24;1789012;80;21022;-72
2022/06/12 06:42:57;;;;;;;12.70;8.85;;;;;;;31.71;46.06;99876.53;1821155;78;21057;-72
2022/06/12 06:48:10;;;;;;;10.45;9.28;;;;;;;31.92;44.21;99876.43;1821204;78;21264;-71
2022/06/12 06:50:37;;;;;;;13.10;9.43;;;;;;;31.96;44.39;99880.47;1788979;80;21038;-73
2022/06/12 06:53:05;;;;;;;10.43;9.08;;;;;;;31.92;43.70;99877.79;1821097;78;21604;-73
2022/06/12 06:55:32;;;;;;;12.55;9.28;;;;;;;31.92;43.62;99879.16;1788840;80;21014;-73
2022/06/12 06:57:59;;;;;;;10.18;9.18;;;;;;;32.15;43.01;99872.58;1821196;78;21037;-73
2022/06/12 07:00:32;;;;;;;14.35;8.80;;;;;;;32.34;42.30;99866.88;1788692;80;21085;-71
2022/06/12 07:03:01;;;;;;;9.63;8.68;;;;;;;32.53;41.86;99863.91;1820188;78;21029;-72
2022/06/12 07:05:29;;;;;;;19.57;8.70;;;;;;;32.74;41.50;99876.02;1788440;80;21041;-72
2022/06/12 07:07:56;;;;;;;11.40;8.70;;;;;;;32.93;39.98;99872.16;1820944;78;21040;-72
2022/06/12 07:10:24;;;;;;;9.15;8.25;;;;;;;33.06;39.57;99869.47;1780641;80;21792;-72
2022/06/12 07:12:53;;;;;;;9.40;8.23;;;;;;;33.15;39.67;99869.58;1784929;79;25682;-72
2022/06/12 07:15:21;;;;;;;28.98;8.85;;;;;;;33.14;38.88;99866.52;1760375;81;21077;-72
2022/06/12 07:17:48;;;;;;;9.13;6.87;;;;;;;33.05;39.16;99867.78;1760641;81;21049;-72
2022/06/12 07:20:18;;;;;;;8.10;7.10;;;;;;;33.26;38.58;99863.98;1777490;80;21017;-73
2022/06/12 07:22:45;;;;;;;10.80;6.97;;;;;;;33.54;38.15;99860.98;1777789;80;21151;-72
2022/06/12 07:25:13;;;;;;;9.48;7.15;;;;;;;33.82;37.40;99857.16;1777359;80;21959;-72
2022/06/12 07:27:41;;;;;;;9.18;6.47;;;;;;;33.77;37.89;99863.80;1777285;80;21551;-71
2022/06/12 07:30:09;;;;;;;12.58;7.08;;;;;;;33.76;37.85;99861.61;1795966;79;21041;-73
2022/06/12 07:32:37;;;;;;;7.00;6.12;;;;;;;33.95;37.21;99863.95;1760784;81;21025;-71
2022/06/12 07:35:06;;;;;;;8.85;6.08;;;;;;;33.99;36.87;99863.83;1777134;80;21114;-71
2022/06/12 07:37:34;;;;;;;9.95;7.10;;;;;;;33.85;37.12;99862.21;1777421;80;21144;-72
2022/06/12 07:40:03;;;;;;;10.58;6.65;;;;;;;33.80;37.12;99857.93;1795796;79;21029;-73
2022/06/12 07:42:31;;;;;;;7.47;6.58;;;;;;;33.90;37.16;99858.30;1760896;81;21065;-72
2022/06/12 07:44:59;;;;;;;7.80;6.40;;;;;;;34.02;37.29;99857.92;1777125;80;21591;-74
2022/06/12 07:47:25;;;;;;;7.35;6.35;;;;;;;34.10;37.19;99862.89;1777369;80;21074;-71
2022/06/12 07:49:53;;;;;;;6.25;5.67;;;;;;;34.18;37.04;99862.63;1760788;81;22014;-72
2022/06/12 07:52:21;;;;;;;7.10;6.10;;;;;;;34.24;36.93;99863.13;1777339;80;21031;-71
2022/06/12 07:54:47;;;;;;;7.80;6.45;;;;;;;34.23;36.89;99858.70;1777593;80;21039;-72
2022/06/12 07:57:14;;;;;;;9.75;6.17;;;;;;;34.41;36.08;99857.44;1777307;80;21107;-72
2022/06/12 07:59:40;;;;;;;6.95;5.67;;;;;;;34.67;35.83;99860.59;1777644;80;21040;-72
2022/06/12 08:02:07;;;;;;;10.48;6.03;;;;;;;34.68;35.76;99860.05;1777323;80;21135;-73
2022/06/12 08:04:35;;;;;;;9.98;5.80;;;;;;;34.61;35.87;99862.00;1777419;80;21043;-71
2022/06/12 08:07:03;;;;;;;10.30;6.12;;;;;;;34.64;34.52;99857.44;1777560;80;21050;-71
2022/06/12 08:09:29;;;;;;;7.70;5.92;;;;;;;34.75;35.04;99856.73;1778566;80;21051;-72
2022/06/12 08:11:58;;;;;;;7.53;5.53;;;;;;;34.89;34.91;99858.30;1767659;80;21532;-73
2022/06/12 08:14:26;;;;;;;9.68;5.62;;;;;;;34.87;34.97;99856.31;1757330;81;21931;-71
2022/06/12 08:16:52;;;;;;;9.38;5.80;;;;;;;34.80;34.45;99856.90;1757808;81;21063;-71
2022/06/12 08:22:05;;;;;;;6.17;5.20;;;;;;;34.58;35.22;99862.39;1757565;81;21154;-72
2022/06/12 08:24:34;;;;;;;8.48;5.65;;;;;;;34.63;35.90;99861.25;1740661;81;21151;-72
2022/06/12 08:27:00;;;;;;;7.45;5.37;;;;;;;34.83;34.98;99859.21;1757528;81;21163;-71
2022/06/12 08:29:28;;;;;;;7.28;4.62;;;;;;;34.89;34.22;99856.93;1757542;81;21045;-73
2022/06/12 08:31:59;;;;;;;8.25;5.17;;;;;;;34.95;33.87;99858.47;1757419;81;21085;-73
2022/06/12 08:34:36;;;;;;;9.00;4.97;;;;;;;35.08;33.52;99861.09;1757599;81;20978;-71
2022/06/12 08:37:06;;;;;;;10.08;5.12;;;;;;;35.24;32.63;99863.29;1757578;81;21057;-72
2022/06/12 08:39:32;;;;;;;5.78;4.90;;;;;;;35.31;32.12;99861.86;1740745;81;21055;-72
2022/06/12 08:42:11;;;;;;;6.80;4.90;;;;;;;35.46;32.22;99866.45;1757093;81;21068;-71
2022/06/12 08:44:53;;;;;;;5.78;4.70;;;;;;;35.63;32.14;99858.50;1757614;81;21089;-71
2022/06/12 08:47:34;;;;;;;7.92;4.25;;;;;;;35.77;31.81;99861.09;1757311;81;21061;-71
2022/06/12 08:50:29;;;;;;;11.93;4.37;;;;;;;35.88;32.06;99860.33;1757040;81;21048;-74
2022/06/12 08:53:10;;;;;;;13.90;4.70;;;;;;;35.86;31.53;99862.46;1757137;81;21204;-72
2022/06/12 08:55:51;;;;;;;8.48;3.90;;;;;;;35.65;31.04;99861.86;1757647;81;21048;-71
2022/06/12 08:58:29;;;;;;;5.15;3.92;;;;;;;35.63;30.89;99866.72;1757459;81;21038;-72
2022/06/12 09:00:58;;;;;;;5.70;3.80;;;;;;;35.67;31.06;99859.73;1757507;81;21041;-72
2022/06/12 09:03:28;;;;;;;7.53;3.80;;;;;;;35.77;30.37;99850.14;1765539;81;21040;-71
2022/06/12 09:06:21;;;;;;;9.15;3.83;;;;;;;35.57;30.97;99862.14;1757410;81;21300;-73
2022/06/12 09:09:01;;;;;;;5.90;3.20;;;;;;;35.39;31.71;99854.73;1757438;81;21582;-72
2022/06/12 09:11:35;;;;;;;5.25;3.45;;;;;;;35.41;31.04;99858.09;1757203;81;21005;-73
2022/06/12 09:14:55;;;;;;;10.30;3.98;;;;;;;35.23;30.60;99855.33;1757518;81;21061;-74
2022/06/12 09:17:49;;;;;;;3.83;3.20;;;;;;;35.05;29.96;99854.71;1757999;81;21422;-74
2022/06/12 09:20:31;;;;;;;8.93;3.55;;;;;;;35.10;29.74;99857.61;1722996;81;21906;-73
2022/06/12 09:25:13;;;;;;;6.30;3.72;;;;;;;35.18;29.47;99857.37;1795813;79;22363;-72
2022/06/12 09:27:52;;;;;;;8.30;3.33;;;;;;;35.30;29.43;99854.19;1756293;81;21594;-73
2022/06/12 09:30:28;;;;;;;9.65;3.95;;;;;;;35.56;29.29;99856.87;1756285;81;21172;-73
2022/06/12 09:33:11;;;;;;;7.95;3.65;;;;;;;35.85;28.75;99847.11;1756129;81;21049;-72
2022/06/12 09:36:04;;;;;;;6.80;3.27;;;;;;;36.02;27.98;99854.98;1756035;81;21060;-72
2022/06/12 09:38:45;;;;;;;5.33;3.67;;;;;;;35.96;28.17;99849.08;1765374;80;21048;-71
2022/06/12 09:41:30;;;;;;;6.37;2.98;;;;;;;36.08;27.82;99849.96;1786084;80;21078;-72
2022/06/12 09:44:20;;;;;;;5.78;3.40;;;;;;;35.89;27.71;99851.03;1790510;80;21117;-71
2022/06/12 09:47:05;;;;;;;6.72;3.50;;;;;;;35.78;28.36;99846.35;1790403;80;21001;-73
2022/06/12 09:50:01;;;;;;;12.95;4.25;;;;;;;36.03;27.89;99851.20;1790587;80;21091;-72
2022/06/12 09:53:05;;;;;;;3.92;2.92;;;;;;;36.11;27.90;99835.81;1790892;80;21028;-73
2022/06/12 09:55:43;;;;;;;5.65;3.40;;;;;;;36.08;26.86;99844.48;1790219;80;21012;-72
2022/06/12 09:58:24;;;;;;;5.33;3.35;;;;;;;36.06;27.11;99843.88;1791014;80;21405;-71
2022/06/12 10:01:16;;;;;;;4.12;3.22;;;;;;;36.05;26.99;99846.33;1790375;80;22187;-72
2022/06/12 10:03:51;;;;;;;13.43;3.75;;;;;;;35.96;27.21;99849.59;1790008;80;20973;-72
2022/06/12 10:06:25;;;;;;;8.45;3.60;;;;;;;36.01;27.05;99844.28;1790357;80;20993;-73
2022/06/12 10:09:08;;;;;;;4.05;3.37;;;;;;;36.06;27.20;99835.65;1790329;80;21060;-73
2022/06/12 10:11:53;;;;;;;7.92;3.30;;;;;;;35.99;27.46;99834.91;1790114;80;21251;-73
2022/06/12 10:14:38;;;;;;;5.85;3.45;;;;;;;36.18;27.77;99837.64;1790353;80;21032;-74
2022/06/12 10:17:11;;;;;;;8.90;3.75;;;;;;;36.17;27.47;99829.09;1790090;80;21147;-72
2022/06/12 10:19:52;;;;;;;8.15;3.47;;;;;;;36.39;26.96;99823.41;1790162;80;21048;-73
2022/06/12 10:22:32;;;;;;;12.03;4.15;;;;;;;36.67;26.89;99815.09;1790145;80;21166;-74
2022/06/12 10:25:00;;;;;;;4.47;3.47;;;;;;;36.69;26.91;99812.96;1790219;80;22230;-73
2022/06/12 10:27:28;;;;;;;4.60;3.30;;;;;;;36.70;27.12;99820.13;1790240;80;21094;-73
2022/06/12 10:30:00;;;;;;;10.63;3.43;;;;;;;36.75;26.98;99816.14;1737445;80;20993;-73
2022/06/12 10:32:52;;;;;;;6.53;3.20;;;;;;;36.85;26.53;99817.75;1790230;80;21552;-73
2022/06/12 10:35:22;;;;;;;8.43;3.33;;;;;;;36.72;26.23;99811.97;1790066;80;21075;-72
2022/06/12 10:37:49;;;;;;;4.80;3.52;;;;;;;36.26;27.38;99809.89;1789725;80;21070;-72
2022/06/12 10:40:24;;;;;;;5.05;3.75;;;;;;;35.93;27.93;99811.16;1789669;80;21025;-72
2022/06/12 10:42:57;;;;;;;4.97;3.80;;;;;;;35.57;28.86;99815.59;1789782;80;21092;-73
2022/06/12 10:45:34;;;;;;;7.00;3.92;;;;;;;35.25;29.13;99814.88;1790273;80;21005;-72
2022/06/12 10:48:24;;;;;;;7.53;4.37;;;;;;;34.96;30.40;99820.48;1789799;80;21032;-71
2022/06/12 10:50:54;;;;;;;8.05;4.28;;;;;;;34.50;31.03;99823.02;1790134;80;21743;-73
2022/06/12 10:53:22;;;;;;;;;;;;;;;33.85;32.66;99815.78;1792496;80;21060;-72
2022/06/12 10:56:20;;;;;;;6.62;4.20;;;;;;;33.64;32.96;99817.75;1790198;80;20196;-72
2022/06/12 10:59:25;;;;;;;5.22;4.00;;;;;;;33.58;33.08;99818.59;1789800;80;21032;-73
2022/06/12 11:02:00;;;;;;;7.28;4.78;;;;;;;33.57;33.35;99815.57;1790151;80;21036;-71
2022/06/12 11:04:55;;;;;;;8.08;4.60;;;;;;;33.42;33.58;99817.67;1789844;80;21266;-73
2022/06/12 11:07:57;;;;;;;5.65;4.03;;;;;;;33.23;33.86;99810.67;1790454;80;21107;-74
2022/06/12 11:11:14;;;;;;;10.98;4.37;;;;;;;33.12;34.24;99815.41;1789930;80;21028;-75
2022/06/12 11:14:09;;;;;;;7.12;4.37;;;;;;;33.04;34.88;99815.62;1755423;81;21137;-72
2022/06/12 11:16:57;;;;;;;6.05;4.20;;;;;;;33.01;34.07;99810.56;1754948;81;21111;-72
2022/06/12 11:20:16;;;;;;;6.47;4.30;;;;;;;32.90;35.00;99818.02;1755221;81;21961;-72
2022/06/12 11:23:14;;;;;;;7.85;4.35;;;;;;;32.71;35.04;99817.80;1755192;81;21011;-72
2022/06/12 11:25:58;;;;;;;7.40;4.55;;;;;;;32.29;34.64;99810.27;1755125;81;22050;-73
2022/06/12 11:28:54;;;;;;;4.92;4.42;;;;;;;32.12;35.58;99811.19;1755136;81;21052;-74
2022/06/12 11:32:02;;;;;;;10.05;4.30;;;;;;;32.15;36.09;99804.48;1738878;81;21077;-72
2022/06/12 11:34:43;;;;;;;5.80;4.37;;;;;;;32.24;35.68;99797.80;1754985;81;21636;-72
2022/06/12 11:37:49;;;;;;;6.20;4.20;;;;;;;32.07;35.39;99796.48;1754825;81;21078;-73
2022/06/12 11:40:40;;;;;;;7.95;4.53;;;;;;;32.05;35.93;99798.57;1754974;81;21083;-72
2022/06/12 11:43:15;;;;;;;12.00;4.30;;;;;;;32.16;34.91;99788.44;1664346;85;21599;-73
2022/06/12 11:46:14;;;;;;;7.83;4.20;;;;;;;32.08;34.76;99784.56;1732151;81;21033;-73
2022/06/12 11:49:07;;;;;;;7.33;4.90;;;;;;;32.07;34.66;99782.87;1754933;81;21130;-72
2022/06/12 11:52:04;;;;;;;7.25;4.10;;;;;;;32.03;34.86;99776.17;1754931;81;21069;-73
2022/06/12 11:54:57;;;;;;;13.05;4.72;;;;;;;32.02;35.30;99780.76;1692516;84;21579;-73
2022/06/12 11:58:02;;;;;;;9.53;4.70;;;;;;;31.98;35.27;99783.07;1749467;81;21029;-72
2022/06/12 12:00:54;;;;;;;7.58;4.37;;;;;;;31.87;34.94;99775.45;1754994;81;21127;-73
2022/06/12 12:03:54;;;;;;;5.78;4.45;;;;;;;31.83;35.20;99766.55;1755198;81;21096;-73
2022/06/12 12:06:58;;;;;;;11.83;4.33;;;;;;;32.00;34.79;99763.78;1755257;81;21100;-72
2022/06/12 12:10:00;;;;;;;7.17;4.12;;;;;;;32.32;34.44;99767.63;1754047;81;21013;-73
2022/06/12 12:12:34;;;;;;;6.42;3.77;;;;;;;32.35;33.79;99763.67;1774662;80;21525;-72
2022/06/12 12:15:05;;;;;;;4.08;3.67;;;;;;;32.25;33.49;99765.94;1789735;80;21008;-71
2022/06/12 12:17:40;;;;;;;8.58;4.00;;;;;;;32.25;33.58;99766.77;1789878;80;21087;-73